createdAt,value
2023-02-05T00:00:19.848Z,13.71
2023-02-05T00:01:23.924Z,13.71
2023-02-05T00:02:18.359Z,13.70
2023-02-05T00:03:26.477Z,13.72
2023-02-05T00:04:18.990Z,13.70
2023-02-05T00:05:18.750Z,13.69
2023-02-05T00:06:18.047Z,13.67
2023-02-05T00:07:18.371Z,13.63
2023-02-05T00:08:18.284Z,13.64
2023-02-05T00:09:18.591Z,13.65
2023-02-05T00:10:18.964Z,13.65
2023-02-05T00:11:18.484Z,13.68
2023-02-05T00:12:18.770Z,13.69
2023-02-05T00:13:18.520Z,13.69
2023-02-05T00:14:18.644Z,13.72
2023-02-05T00:15:19.222Z,13.72
2023-02-05T00:16:18.601Z,13.73
2023-02-05T00:17:18.235Z,13.73
2023-02-05T00:18:18.487Z,13.73
2023-02-05T00:19:18.605Z,13.72
2023-02-05T00:20:18.935Z,13.72
2023-02-05T00:21:18.552Z,13.69
2023-02-05T00:22:18.536Z,13.69
2023-02-05T00:23:18.700Z,13.67
2023-02-05T00:24:18.045Z,13.67
2023-02-05T00:25:18.457Z,13.63
2023-02-05T00:26:18.521Z,13.61
2023-02-05T00:27:18.842Z,13.61
2023-02-05T00:28:18.956Z,13.58
2023-02-05T00:29:18.151Z,13.60
2023-02-05T00:30:18.585Z,13.60
2023-02-05T00:31:18.233Z,13.59
2023-02-05T00:32:18.611Z,13.56
2023-02-05T00:33:18.790Z,13.56
2023-02-05T00:34:18.390Z,13.56
2023-02-05T00:35:18.619Z,13.56
2023-02-05T00:36:18.407Z,13.57
2023-02-05T00:37:18.196Z,13.58
2023-02-05T00:38:17.802Z,13.61
2023-02-05T00:39:18.535Z,13.60
2023-02-05T00:40:18.030Z,13.56
2023-02-05T00:41:17.743Z,13.56
2023-02-05T00:42:18.307Z,13.58
2023-02-05T00:43:18.034Z,13.60
2023-02-05T00:44:17.981Z,13.60
2023-02-05T00:45:17.889Z,13.60
2023-02-05T00:46:18.477Z,13.63
2023-02-05T00:47:18.635Z,13.61
2023-02-05T00:48:18.521Z,13.59
2023-02-05T00:49:18.321Z,13.56
2023-02-05T00:50:18.039Z,13.55
2023-02-05T00:51:17.893Z,13.56
2023-02-05T00:52:17.864Z,13.58
2023-02-05T00:53:17.637Z,13.56
2023-02-05T00:54:17.833Z,13.59
2023-02-05T00:55:18.037Z,13.59
2023-02-05T00:56:18.312Z,13.59
2023-02-05T00:57:17.995Z,13.60
2023-02-05T00:58:17.897Z,13.62
2023-02-05T00:59:18.314Z,13.62
2023-02-05T01:00:19.860Z,13.62
2023-02-05T01:02:18.316Z,13.60
2023-02-05T01:03:18.326Z,13.56
2023-02-05T01:04:18.216Z,13.61
2023-02-05T01:05:18.300Z,13.60
2023-02-05T01:06:18.071Z,13.62
2023-02-05T01:07:18.628Z,13.62
2023-02-05T01:08:18.935Z,13.61
2023-02-05T01:09:18.440Z,13.63
2023-02-05T01:10:18.386Z,13.63
2023-02-05T01:11:18.704Z,13.62
2023-02-05T01:12:19.047Z,13.63
2023-02-05T01:13:18.912Z,13.66
2023-02-05T01:14:18.911Z,13.68
2023-02-05T01:15:18.898Z,13.68
2023-02-05T01:16:18.858Z,13.68
2023-02-05T01:17:18.616Z,13.70
2023-02-05T01:18:18.575Z,13.72
2023-02-05T01:19:18.674Z,13.71
2023-02-05T01:20:18.660Z,13.75
2023-02-05T01:21:18.384Z,13.75
2023-02-05T01:22:18.938Z,13.74
2023-02-05T01:23:18.669Z,13.77
2023-02-05T01:24:18.817Z,13.77
2023-02-05T01:25:18.725Z,13.77
2023-02-05T01:26:18.496Z,13.77
2023-02-05T01:27:18.879Z,13.75
2023-02-05T01:28:19.061Z,13.77
2023-02-05T01:30:19.467Z,13.77
2023-02-05T01:31:18.641Z,13.76
2023-02-05T01:32:18.752Z,13.75
2023-02-05T01:33:18.712Z,13.75
2023-02-05T01:34:18.333Z,13.75
2023-02-05T01:35:19.441Z,13.73
2023-02-05T01:36:19.123Z,13.75
2023-02-05T01:37:18.642Z,13.75
2023-02-05T01:38:18.898Z,13.76
2023-02-05T01:39:18.373Z,13.72
2023-02-05T01:40:18.661Z,13.66
2023-02-05T01:41:18.515Z,13.62
2023-02-05T01:42:18.022Z,13.60
2023-02-05T01:43:18.180Z,13.57
2023-02-05T01:44:18.630Z,13.56
2023-02-05T01:45:18.827Z,13.56
2023-02-05T01:46:18.693Z,13.55
2023-02-05T01:47:17.852Z,13.52
2023-02-05T01:48:18.580Z,13.51
2023-02-05T01:49:18.579Z,13.48
2023-02-05T01:50:18.610Z,13.46
2023-02-05T01:51:17.731Z,13.46
2023-02-05T01:52:18.629Z,13.47
2023-02-05T01:53:18.649Z,13.48
2023-02-05T01:54:18.388Z,13.51
2023-02-05T01:55:18.191Z,13.50
2023-02-05T01:56:18.195Z,13.52
2023-02-05T01:57:17.940Z,13.55
2023-02-05T01:58:17.808Z,13.54
2023-02-05T01:59:18.462Z,13.53
2023-02-05T02:00:19.403Z,13.55
2023-02-05T02:01:18.063Z,13.56
2023-02-05T02:02:18.143Z,13.57
2023-02-05T02:03:18.257Z,13.57
2023-02-05T02:04:20.099Z,13.57
2023-02-05T02:05:19.307Z,13.60
2023-02-05T02:06:18.100Z,13.59
2023-02-05T02:07:20.419Z,13.59
2023-02-05T02:08:18.279Z,13.59
2023-02-05T02:09:18.633Z,13.58
2023-02-05T02:10:18.816Z,13.60
2023-02-05T02:11:18.251Z,13.60
2023-02-05T02:12:18.107Z,13.60
2023-02-05T02:13:17.860Z,13.61
2023-02-05T02:14:18.610Z,13.62
2023-02-05T02:15:18.966Z,13.60
2023-02-05T02:16:18.298Z,13.57
2023-02-05T02:17:18.315Z,13.59
2023-02-05T02:18:17.671Z,13.59
2023-02-05T02:19:18.486Z,13.60
2023-02-05T02:20:18.256Z,13.61
2023-02-05T02:21:17.926Z,13.60
2023-02-05T02:22:18.929Z,13.62
2023-02-05T02:23:18.534Z,13.63
2023-02-05T02:24:18.943Z,13.64
2023-02-05T02:25:18.419Z,13.64
2023-02-05T02:26:18.175Z,13.63
2023-02-05T02:27:17.980Z,13.63
2023-02-05T02:28:18.321Z,13.64
2023-02-05T02:29:18.694Z,13.64
2023-02-05T02:30:18.607Z,13.63
2023-02-05T02:31:18.063Z,13.64
2023-02-05T02:32:18.105Z,13.65
2023-02-05T02:33:17.993Z,13.65
2023-02-05T02:34:18.767Z,13.64
2023-02-05T02:35:18.956Z,13.64
2023-02-05T02:36:18.604Z,13.61
2023-02-05T02:37:18.066Z,13.60
2023-02-05T02:38:17.840Z,13.60
2023-02-05T02:39:18.490Z,13.57
2023-02-05T02:40:18.560Z,13.57
2023-02-05T02:41:18.167Z,13.57
2023-02-05T02:42:17.877Z,13.54
2023-02-05T02:43:18.608Z,13.54
2023-02-05T02:44:18.526Z,13.51
2023-02-05T02:45:18.403Z,13.52
2023-02-05T02:46:17.733Z,13.53
2023-02-05T02:47:18.299Z,13.51
2023-02-05T02:48:17.807Z,13.50
2023-02-05T02:49:18.366Z,13.47
2023-02-05T02:50:18.317Z,13.46
2023-02-05T02:51:17.966Z,13.44
2023-02-05T02:52:18.808Z,13.42
2023-02-05T02:53:18.337Z,13.40
2023-02-05T02:54:17.979Z,13.37
2023-02-05T02:55:18.185Z,13.35
2023-02-05T02:56:18.472Z,13.34
2023-02-05T02:57:18.586Z,13.31
2023-02-05T02:58:17.868Z,13.28
2023-02-05T02:59:17.883Z,13.27
2023-02-05T03:00:20.040Z,13.25
2023-02-05T03:01:18.065Z,13.23
2023-02-05T03:02:17.688Z,13.22
2023-02-05T03:03:18.366Z,13.20
2023-02-05T03:04:18.213Z,13.22
2023-02-05T03:05:18.076Z,13.22
2023-02-05T03:06:18.443Z,13.23
2023-02-05T03:07:18.521Z,13.25
2023-02-05T03:08:18.542Z,13.25
2023-02-05T03:09:18.680Z,13.26
2023-02-05T03:10:18.583Z,13.27
2023-02-05T03:11:18.724Z,13.29
2023-02-05T03:12:18.450Z,13.30
2023-02-05T03:13:18.809Z,13.33
2023-02-05T03:14:18.483Z,13.34
2023-02-05T03:15:18.816Z,13.33
2023-02-05T03:16:18.191Z,13.35
2023-02-05T03:17:18.180Z,13.35
2023-02-05T03:18:18.159Z,13.36
2023-02-05T03:19:17.877Z,13.37
2023-02-05T03:20:17.924Z,13.39
2023-02-05T03:21:17.729Z,13.38
2023-02-05T03:22:18.537Z,13.37
2023-02-05T03:23:18.212Z,13.34
2023-02-05T03:24:17.720Z,13.37
2023-02-05T03:25:19.238Z,13.37
2023-02-05T03:26:17.765Z,13.38
2023-02-05T03:27:18.389Z,13.39
2023-02-05T03:28:18.219Z,13.40
2023-02-05T03:29:18.166Z,13.39
2023-02-05T03:30:18.950Z,13.40
2023-02-05T03:31:18.675Z,13.40
2023-02-05T03:32:18.427Z,13.40
2023-02-05T03:33:18.508Z,13.42
2023-02-05T03:34:18.115Z,13.42
2023-02-05T03:35:18.240Z,13.46
2023-02-05T03:36:18.248Z,13.44
2023-02-05T03:37:18.313Z,13.44
2023-02-05T03:38:18.346Z,13.48
2023-02-05T03:39:18.348Z,13.47
2023-02-05T03:40:18.796Z,13.5
2023-02-05T03:41:18.085Z,13.49
2023-02-05T03:42:18.222Z,13.49
2023-02-05T03:43:18.071Z,13.51
2023-02-05T03:44:18.464Z,13.52
2023-02-05T03:45:19.047Z,13.53
2023-02-05T03:46:18.084Z,13.53
2023-02-05T03:47:18.279Z,13.52
2023-02-05T03:48:18.588Z,13.56
2023-02-05T03:49:18.666Z,13.56
2023-02-05T03:50:19.371Z,13.56
2023-02-05T03:51:18.735Z,13.57
2023-02-05T03:52:18.670Z,13.58
2023-02-05T03:53:18.785Z,13.58
2023-02-05T03:54:18.731Z,13.60
2023-02-05T03:55:18.516Z,13.60
2023-02-05T03:56:18.668Z,13.59
2023-02-05T03:57:18.641Z,13.61
2023-02-05T03:58:18.548Z,13.62
2023-02-05T03:59:18.786Z,13.62
2023-02-05T04:00:19.954Z,13.63
2023-02-05T04:01:18.226Z,13.62
2023-02-05T04:02:18.360Z,13.64
2023-02-05T04:03:18.843Z,13.61
2023-02-05T04:04:18.366Z,13.63
2023-02-05T04:05:18.617Z,13.63
2023-02-05T04:06:18.886Z,13.62
2023-02-05T04:07:18.790Z,13.61
2023-02-05T04:08:18.037Z,13.63
2023-02-05T04:09:18.276Z,13.64
2023-02-05T04:10:18.426Z,13.62
2023-02-05T04:11:18.121Z,13.63
2023-02-05T04:12:18.541Z,13.63
2023-02-05T04:13:18.199Z,13.63
2023-02-05T04:14:17.901Z,13.64
2023-02-05T04:15:18.815Z,13.64
2023-02-05T04:16:18.414Z,13.63
2023-02-05T04:17:18.391Z,13.63
2023-02-05T04:18:17.924Z,13.62
2023-02-05T04:19:18.313Z,13.62
2023-02-05T04:20:17.877Z,13.64
2023-02-05T04:21:18.067Z,13.63
2023-02-05T04:22:17.769Z,13.64
2023-02-05T04:23:18.006Z,13.62
2023-02-05T04:24:18.669Z,13.61
2023-02-05T04:25:18.536Z,13.63
2023-02-05T04:26:18.103Z,13.63
2023-02-05T04:27:17.881Z,13.64
2023-02-05T04:28:18.350Z,13.62
2023-02-05T04:29:17.611Z,13.64
2023-02-05T04:30:18.313Z,13.63
2023-02-05T04:31:17.942Z,13.64
2023-02-05T04:32:18.259Z,13.64
2023-02-05T04:33:17.726Z,13.67
2023-02-05T04:34:18.438Z,13.67
2023-02-05T04:35:18.480Z,13.67
2023-02-05T04:36:17.654Z,13.66
2023-02-05T04:37:18.349Z,13.67
2023-02-05T04:38:17.859Z,13.65
2023-02-05T04:39:17.663Z,13.66
2023-02-05T04:40:17.660Z,13.67
2023-02-05T04:41:18.028Z,13.66
2023-02-05T04:42:18.585Z,13.67
2023-02-05T04:43:18.004Z,13.65
2023-02-05T04:44:18.320Z,13.64
2023-02-05T04:45:22.927Z,13.62
2023-02-05T04:46:17.659Z,13.60
2023-02-05T04:47:18.400Z,13.55
2023-02-05T04:48:17.964Z,13.55
2023-02-05T04:49:17.923Z,13.54
2023-02-05T04:50:17.835Z,13.55
2023-02-05T04:51:18.757Z,13.56
2023-02-05T04:52:18.781Z,13.55
2023-02-05T04:53:18.328Z,13.56
2023-02-05T04:54:17.805Z,13.54
2023-02-05T04:55:18.778Z,13.54
2023-02-05T04:56:18.159Z,13.55
2023-02-05T04:57:18.011Z,13.56
2023-02-05T04:58:17.568Z,13.56
2023-02-05T04:59:18.104Z,13.55
2023-02-05T05:00:18.648Z,13.56
2023-02-05T05:01:18.783Z,13.56
2023-02-05T05:02:17.573Z,13.56
2023-02-05T05:03:18.421Z,13.56
2023-02-05T05:04:17.956Z,13.56
2023-02-05T05:05:17.863Z,13.57
2023-02-05T05:06:18.293Z,13.56
2023-02-05T05:07:17.929Z,13.56
2023-02-05T05:08:18.114Z,13.56
2023-02-05T05:09:17.663Z,13.55
2023-02-05T05:10:18.572Z,13.56
2023-02-05T05:11:18.051Z,13.54
2023-02-05T05:12:18.011Z,13.54
2023-02-05T05:13:18.108Z,13.54
2023-02-05T05:14:18.322Z,13.54
2023-02-05T05:15:18.599Z,13.52
2023-02-05T05:16:18.553Z,13.52
2023-02-05T05:17:18.649Z,13.43
2023-02-05T05:18:18.237Z,13.40
2023-02-05T05:19:18.037Z,13.38
2023-02-05T05:20:18.860Z,13.40
2023-02-05T05:21:17.887Z,13.41
2023-02-05T05:22:18.038Z,13.37
2023-02-05T05:23:18.821Z,13.31
2023-02-05T05:24:18.757Z,13.25
2023-02-05T05:25:19.061Z,13.20
2023-02-05T05:26:18.034Z,13.17
2023-02-05T05:27:17.790Z,13.11
2023-02-05T05:28:18.837Z,13.07
2023-02-05T05:29:18.040Z,13.09
2023-02-05T05:30:18.477Z,13.12
2023-02-05T05:31:18.424Z,13.13
2023-02-05T05:32:18.426Z,13.11
2023-02-05T05:33:17.915Z,13.11
2023-02-05T05:34:18.743Z,13.13
2023-02-05T05:35:18.384Z,13.12
2023-02-05T05:36:18.537Z,13.07
2023-02-05T05:37:18.357Z,13.06
2023-02-05T05:38:17.773Z,13.04
2023-02-05T05:39:17.697Z,13.01
2023-02-05T05:40:18.521Z,12.96
2023-02-05T05:41:18.697Z,12.96
2023-02-05T05:42:18.706Z,12.96
2023-02-05T05:43:18.534Z,12.96
2023-02-05T05:44:18.633Z,12.98
2023-02-05T05:45:18.817Z,12.99
2023-02-05T05:46:18.674Z,12.94
2023-02-05T05:47:17.882Z,12.91
2023-02-05T05:48:18.701Z,12.92
2023-02-05T05:49:18.510Z,12.93
2023-02-05T05:50:18.462Z,12.96
2023-02-05T05:51:18.025Z,12.97
2023-02-05T05:52:18.151Z,12.97
2023-02-05T05:53:18.441Z,12.96
2023-02-05T05:54:18.239Z,12.96
2023-02-05T05:55:19.104Z,12.96
2023-02-05T05:56:18.145Z,13.00
2023-02-05T05:57:18.368Z,12.98
2023-02-05T05:58:18.685Z,13.03
2023-02-05T05:59:18.852Z,13.05
2023-02-05T06:00:19.213Z,13.06
2023-02-05T06:01:18.391Z,13.09
2023-02-05T06:02:18.776Z,13.12
2023-02-05T06:03:18.119Z,13.11
2023-02-05T06:04:18.404Z,13.12
2023-02-05T06:05:18.514Z,13.15
2023-02-05T06:06:18.628Z,13.14
2023-02-05T06:07:18.382Z,13.15
2023-02-05T06:08:18.666Z,13.17
2023-02-05T06:09:18.234Z,13.18
2023-02-05T06:10:18.676Z,13.21
2023-02-05T06:11:17.849Z,13.18
2023-02-05T06:12:18.605Z,13.19
2023-02-05T06:13:18.628Z,13.22
2023-02-05T06:14:18.871Z,13.22
2023-02-05T06:15:18.530Z,13.23
2023-02-05T06:16:18.813Z,13.23
2023-02-05T06:17:18.194Z,13.22
2023-02-05T06:18:18.494Z,13.22
2023-02-05T06:19:17.813Z,13.23
2023-02-05T06:20:19.588Z,13.25
2023-02-05T06:21:18.590Z,13.25
2023-02-05T06:22:18.719Z,13.28
2023-02-05T06:23:18.795Z,13.21
2023-02-05T06:24:18.457Z,13.25
2023-02-05T06:25:18.483Z,13.27
2023-02-05T06:26:18.317Z,13.28
2023-02-05T06:27:18.361Z,13.22
2023-02-05T06:28:18.618Z,13.24
2023-02-05T06:29:18.501Z,13.26
2023-02-05T06:30:19.350Z,13.27
2023-02-05T06:31:18.836Z,13.27
2023-02-05T06:32:18.702Z,13.27
2023-02-05T06:33:18.756Z,13.27
2023-02-05T06:34:18.655Z,13.25
2023-02-05T06:35:18.879Z,13.27
2023-02-05T06:36:17.838Z,13.25
2023-02-05T06:37:18.042Z,13.27
2023-02-05T06:38:18.721Z,13.26
2023-02-05T06:39:17.990Z,13.24
2023-02-05T06:40:18.514Z,13.25
2023-02-05T06:41:18.880Z,13.26
2023-02-05T06:42:18.184Z,13.26
2023-02-05T06:43:17.855Z,13.27
2023-02-05T06:44:17.971Z,13.27
2023-02-05T06:45:18.355Z,13.26
2023-02-05T06:46:18.035Z,13.28
2023-02-05T06:47:18.207Z,13.27
2023-02-05T06:48:17.988Z,13.28
2023-02-05T06:49:18.569Z,13.30
2023-02-05T06:50:18.592Z,13.30
2023-02-05T06:51:18.724Z,13.30
2023-02-05T06:52:18.712Z,13.32
2023-02-05T06:53:18.475Z,13.33
2023-02-05T06:54:18.691Z,13.35
2023-02-05T06:55:19.039Z,13.36
2023-02-05T06:56:18.295Z,13.36
2023-02-05T06:57:18.022Z,13.36
2023-02-05T06:58:18.035Z,13.39
2023-02-05T06:59:18.367Z,13.39
2023-02-05T07:00:19.771Z,13.38
2023-02-05T07:01:18.719Z,13.39
2023-02-05T07:02:18.024Z,13.38
2023-02-05T07:03:18.550Z,13.37
2023-02-05T07:04:18.235Z,13.40
2023-02-05T07:05:18.833Z,13.41
2023-02-05T07:06:18.626Z,13.39
2023-02-05T07:07:18.642Z,13.39
2023-02-05T07:08:17.872Z,13.40
2023-02-05T07:09:18.383Z,13.40
2023-02-05T07:10:18.615Z,13.39
2023-02-05T07:11:18.368Z,13.39
2023-02-05T07:12:23.858Z,13.40
2023-02-05T07:13:18.286Z,13.39
2023-02-05T07:14:23.306Z,13.43
2023-02-05T07:15:19.071Z,13.40
2023-02-05T07:16:23.180Z,13.37
2023-02-05T07:17:18.468Z,13.38
2023-02-05T07:18:18.687Z,13.38
2023-02-05T07:19:19.064Z,13.39
2023-02-05T07:20:18.704Z,13.39
2023-02-05T07:21:18.416Z,13.38
2023-02-05T07:22:18.096Z,13.36
2023-02-05T07:23:18.288Z,13.35
2023-02-05T07:24:18.645Z,13.37
2023-02-05T07:25:18.907Z,13.36
2023-02-05T07:26:18.061Z,13.35
2023-02-05T07:27:18.491Z,13.36
2023-02-05T07:28:18.146Z,13.36
2023-02-05T07:29:18.229Z,13.38
2023-02-05T07:30:18.555Z,13.37
2023-02-05T07:31:18.489Z,13.37
2023-02-05T07:32:18.675Z,13.37
2023-02-05T07:33:18.399Z,13.39
2023-02-05T07:34:18.825Z,13.38
2023-02-05T07:35:18.973Z,13.39
2023-02-05T07:36:18.440Z,13.39
2023-02-05T07:37:20.544Z,13.40
2023-02-05T07:38:19.027Z,13.41
2023-02-05T07:39:19.100Z,13.40
2023-02-05T07:40:19.900Z,13.39
2023-02-05T07:41:18.900Z,13.39
2023-02-05T07:42:18.885Z,13.41
2023-02-05T07:43:18.825Z,13.43
2023-02-05T07:44:38.077Z,13.43
2023-02-05T07:45:19.122Z,13.42
2023-02-05T07:46:19.178Z,13.43
2023-02-05T07:47:19.034Z,13.44
2023-02-05T07:48:18.485Z,13.44
2023-02-05T07:49:18.735Z,13.44
2023-02-05T07:50:19.331Z,13.45
2023-02-05T07:51:18.674Z,13.47
2023-02-05T07:52:18.574Z,13.46
2023-02-05T07:53:18.599Z,13.46
2023-02-05T07:54:19.050Z,13.43
2023-02-05T07:55:18.739Z,13.43
2023-02-05T07:56:18.807Z,13.43
2023-02-05T07:57:18.355Z,13.38
2023-02-05T07:58:40.669Z,13.35
2023-02-05T07:59:18.969Z,13.32
2023-02-05T08:00:20.051Z,13.30
2023-02-05T08:01:19.240Z,13.27
2023-02-05T08:02:19.118Z,13.26
2023-02-05T08:03:18.769Z,13.25
2023-02-05T08:04:19.187Z,13.19
2023-02-05T08:05:19.013Z,13.17
2023-02-05T08:06:19.075Z,13.18
2023-02-05T08:07:18.959Z,13.16
2023-02-05T08:08:18.806Z,13.13
2023-02-05T08:09:18.728Z,13.18
2023-02-05T08:10:19.336Z,13.09
2023-02-05T08:11:19.004Z,13.09
2023-02-05T08:12:19.131Z,13.12
2023-02-05T08:13:18.781Z,13.14
2023-02-05T08:14:19.099Z,13.13
2023-02-05T08:15:18.996Z,13.10
2023-02-05T08:16:18.637Z,13.06
2023-02-05T08:17:18.981Z,13.05
2023-02-05T08:18:18.380Z,13.07
2023-02-05T08:19:18.989Z,13.08
2023-02-05T08:20:18.723Z,13.07
2023-02-05T08:21:18.832Z,13.06
2023-02-05T08:22:18.385Z,13.09
2023-02-05T08:23:19.193Z,13.02
2023-02-05T08:24:18.867Z,12.96
2023-02-05T08:25:18.770Z,13.00
2023-02-05T08:26:18.685Z,13.01
2023-02-05T08:27:18.977Z,12.97
2023-02-05T08:28:18.833Z,13.02
2023-02-05T08:29:18.743Z,13.05
2023-02-05T08:30:19.105Z,13.09
2023-02-05T08:31:19.081Z,13.10
2023-02-05T08:32:18.894Z,13.05
2023-02-05T08:33:18.811Z,13.04
2023-02-05T08:34:20.529Z,12.99
2023-02-05T08:35:18.471Z,12.97
2023-02-05T08:36:19.557Z,12.98
2023-02-05T08:37:18.303Z,13.00
2023-02-05T08:38:19.200Z,12.97
2023-02-05T08:39:18.945Z,12.98
2023-02-05T08:40:18.740Z,12.95
2023-02-05T08:41:18.685Z,12.90
2023-02-05T08:42:19.019Z,12.89
2023-02-05T08:43:19.646Z,12.88
2023-02-05T08:44:18.981Z,12.87
2023-02-05T08:45:19.225Z,12.80
2023-02-05T08:46:19.318Z,12.78
2023-02-05T08:47:19.061Z,12.73
2023-02-05T08:48:19.786Z,12.63
2023-02-05T08:49:19.541Z,12.60
2023-02-05T08:50:19.189Z,12.57
2023-02-05T08:51:19.258Z,12.59
2023-02-05T08:52:19.548Z,12.65
2023-02-05T08:53:19.216Z,12.70
2023-02-05T08:54:19.090Z,12.67
2023-02-05T08:55:19.660Z,12.66
2023-02-05T08:56:20.329Z,12.64
2023-02-05T08:57:18.569Z,12.69
2023-02-05T08:58:19.023Z,12.73
2023-02-05T08:59:18.945Z,12.67
2023-02-05T09:00:20.884Z,12.53
2023-02-05T09:01:19.292Z,12.44
2023-02-05T09:02:18.749Z,12.41
2023-02-05T09:03:18.912Z,12.47
2023-02-05T09:04:19.050Z,12.49
2023-02-05T09:05:19.293Z,12.45
2023-02-05T09:06:19.565Z,12.37
2023-02-05T09:07:19.282Z,12.36
2023-02-05T09:08:20.222Z,12.35
2023-02-05T09:09:19.139Z,12.37
2023-02-05T09:10:19.253Z,12.40
2023-02-05T09:11:18.974Z,12.37
2023-02-05T09:12:19.380Z,12.37
2023-02-05T09:13:19.301Z,12.32
2023-02-05T09:14:19.051Z,12.30
2023-02-05T09:15:19.589Z,12.31
2023-02-05T09:16:19.129Z,12.26
2023-02-05T09:17:19.844Z,12.24
2023-02-05T09:18:19.182Z,12.26
2023-02-05T09:19:18.680Z,12.22
2023-02-05T09:20:19.657Z,12.16
2023-02-05T09:21:19.749Z,12.27
2023-02-05T09:22:19.164Z,12.35
2023-02-05T09:23:19.646Z,12.22
2023-02-05T09:24:19.225Z,12.12
2023-02-05T09:25:19.126Z,12.07
2023-02-05T09:26:19.358Z,11.96
2023-02-05T09:27:19.226Z,11.85
2023-02-05T09:28:19.654Z,11.85
2023-02-05T09:29:19.509Z,11.98
2023-02-05T09:30:19.173Z,12.11
2023-02-05T09:31:19.383Z,11.90
2023-02-05T09:32:19.839Z,11.77
2023-02-05T09:33:19.440Z,11.64
2023-02-05T09:34:18.961Z,11.67
2023-02-05T09:35:19.726Z,11.60
2023-02-05T09:36:19.043Z,11.63
2023-02-05T09:37:19.171Z,11.67
2023-02-05T09:38:19.713Z,11.64
2023-02-05T09:39:44.315Z,11.54
2023-02-05T09:40:28.329Z,11.56
2023-02-05T09:41:18.527Z,11.55
2023-02-05T09:42:18.292Z,11.65
2023-02-05T09:43:18.390Z,11.61
2023-02-05T09:44:19.004Z,11.59
2023-02-05T09:45:18.959Z,11.59
2023-02-05T09:46:19.160Z,11.66
2023-02-05T09:47:18.614Z,11.60
2023-02-05T09:48:18.832Z,11.60
2023-02-05T09:49:18.577Z,11.56
2023-02-05T09:50:19.569Z,11.57
2023-02-05T09:51:18.738Z,11.66
2023-02-05T09:52:18.547Z,11.72
2023-02-05T09:53:18.447Z,11.72
2023-02-05T09:54:18.403Z,11.56
2023-02-05T09:55:19.331Z,11.46
2023-02-05T09:56:18.764Z,11.47
2023-02-05T09:57:18.555Z,11.52
2023-02-05T09:58:18.648Z,11.48
2023-02-05T09:59:18.838Z,11.47
2023-02-05T10:00:19.249Z,11.48
2023-02-05T10:01:33.368Z,11.47
2023-02-05T10:02:19.159Z,11.53
2023-02-05T10:03:19.573Z,11.46
2023-02-05T10:04:19.544Z,11.53
2023-02-05T10:05:33.675Z,11.51
2023-02-05T10:06:19.417Z,11.45
2023-02-05T10:07:19.543Z,11.43
2023-02-05T10:08:19.387Z,11.37
2023-02-05T10:09:19.041Z,11.33
2023-02-05T10:10:19.808Z,11.31
2023-02-05T10:11:19.677Z,11.35
2023-02-05T10:12:19.766Z,11.40
2023-02-05T10:13:19.198Z,11.51
2023-02-05T10:14:19.344Z,11.54
2023-02-05T10:15:19.668Z,11.56
2023-02-05T10:16:19.765Z,11.56
2023-02-05T10:17:19.624Z,11.58
2023-02-05T10:18:19.307Z,11.57
2023-02-05T10:19:19.149Z,11.52
2023-02-05T10:20:19.610Z,11.52
2023-02-05T10:21:19.673Z,11.86
2023-02-05T10:22:19.547Z,11.87
2023-02-05T10:23:18.858Z,11.97
2023-02-05T10:24:19.773Z,11.89
2023-02-05T10:25:18.869Z,11.82
2023-02-05T10:26:19.561Z,11.83
2023-02-05T10:28:19.378Z,11.90
2023-02-05T10:29:19.212Z,11.73
2023-02-05T10:30:19.849Z,11.71
2023-02-05T10:31:19.197Z,11.72
2023-02-05T10:32:19.086Z,11.77
2023-02-05T10:33:19.221Z,11.78
2023-02-05T10:34:18.958Z,11.77
2023-02-05T10:35:19.258Z,11.75
2023-02-05T10:36:19.145Z,11.93
2023-02-05T10:37:18.922Z,11.82
2023-02-05T10:38:18.971Z,11.71
2023-02-05T10:39:18.823Z,11.65
2023-02-05T10:40:19.328Z,11.70
2023-02-05T10:41:19.156Z,11.64
2023-02-05T10:42:19.741Z,11.69
2023-02-05T10:43:19.893Z,11.61
2023-02-05T10:44:19.320Z,11.61
2023-02-05T10:45:19.718Z,11.62
2023-02-05T10:46:18.796Z,11.56
2023-02-05T10:47:18.803Z,11.56
2023-02-05T10:48:19.078Z,11.55
2023-02-05T10:49:18.686Z,11.5
2023-02-05T10:50:18.934Z,11.56
2023-02-05T10:51:18.712Z,11.56
2023-02-05T10:52:19.119Z,11.51
2023-02-05T10:53:19.059Z,11.51
2023-02-05T10:54:18.783Z,11.54
2023-02-05T10:55:18.875Z,11.55
2023-02-05T10:56:18.179Z,11.51
2023-02-05T10:57:18.615Z,11.53
2023-02-05T10:58:18.769Z,11.74
2023-02-05T10:59:18.238Z,11.69
2023-02-05T11:00:19.671Z,11.73
2023-02-05T11:01:18.443Z,11.73
2023-02-05T11:02:19.072Z,11.67
2023-02-05T11:03:19.393Z,11.61
2023-02-05T11:04:18.533Z,11.61
2023-02-05T11:05:18.897Z,11.60
2023-02-05T11:06:19.235Z,11.59
2023-02-05T11:07:19.213Z,11.60
2023-02-05T11:08:18.920Z,11.65
2023-02-05T11:09:19.537Z,11.72
2023-02-05T11:10:19.297Z,11.68
2023-02-05T11:11:19.089Z,11.68
2023-02-05T11:12:18.933Z,11.73
2023-02-05T11:13:19.127Z,11.64
2023-02-05T11:14:19.094Z,11.60
2023-02-05T11:15:19.374Z,11.52
2023-02-05T11:16:18.923Z,11.44
2023-02-05T11:17:19.186Z,11.43
2023-02-05T11:18:18.758Z,11.44
2023-02-05T11:19:18.165Z,11.47
2023-02-05T11:20:19.132Z,11.51
2023-02-05T11:21:18.197Z,11.51
2023-02-05T11:22:18.450Z,11.50
2023-02-05T11:24:19.096Z,11.50
2023-02-05T11:25:18.989Z,11.48
2023-02-05T11:26:19.045Z,11.47
2023-02-05T11:27:19.150Z,11.47
2023-02-05T11:28:18.801Z,11.5
2023-02-05T11:29:18.713Z,11.52
2023-02-05T11:30:37.678Z,11.52
2023-02-05T11:31:19.005Z,11.51
2023-02-05T11:32:18.992Z,11.54
2023-02-05T11:33:20.113Z,11.56
2023-02-05T11:34:18.440Z,11.59
2023-02-05T11:35:19.021Z,11.70
2023-02-05T11:36:18.786Z,11.65
2023-02-05T11:37:18.999Z,11.59
2023-02-05T11:38:18.676Z,11.60
2023-02-05T11:39:18.948Z,11.54
2023-02-05T11:40:19.624Z,11.72
2023-02-05T11:41:18.929Z,11.67
2023-02-05T11:42:18.996Z,11.62
2023-02-05T11:43:18.747Z,11.59
2023-02-05T11:44:19.345Z,11.58
2023-02-05T11:45:19.265Z,11.56
2023-02-05T11:46:18.837Z,11.56
2023-02-05T11:47:18.936Z,11.63
2023-02-05T11:48:18.677Z,11.56
2023-02-05T11:49:18.770Z,11.46
2023-02-05T11:50:18.983Z,11.46
2023-02-05T11:51:19.478Z,11.5
2023-02-05T11:52:19.064Z,11.45
2023-02-05T11:53:18.803Z,11.42
2023-02-05T11:54:18.761Z,11.45
2023-02-05T11:55:19.585Z,11.53
2023-02-05T11:56:21.330Z,11.48
2023-02-05T11:57:19.001Z,11.59
2023-02-05T11:58:25.118Z,11.64
2023-02-05T11:59:19.497Z,11.56
2023-02-05T12:00:21.357Z,11.52
2023-02-05T12:01:20.144Z,11.55
2023-02-05T12:02:21.243Z,11.55
2023-02-05T12:03:19.673Z,11.57
2023-02-05T12:04:24.491Z,11.67
2023-02-05T12:05:19.016Z,11.68
2023-02-05T12:06:19.405Z,11.64
2023-02-05T12:07:19.887Z,11.59
2023-02-05T12:08:24.203Z,11.55
2023-02-05T12:09:19.169Z,11.52
2023-02-05T12:10:19.235Z,11.48
2023-02-05T12:11:19.094Z,11.49
2023-02-05T12:12:19.297Z,11.58
2023-02-05T12:13:18.970Z,11.54
2023-02-05T12:14:19.293Z,11.51
2023-02-05T12:15:19.057Z,11.55
2023-02-05T12:16:19.796Z,11.51
2023-02-05T12:17:19.850Z,11.54
2023-02-05T12:18:19.078Z,11.68
2023-02-05T12:19:19.562Z,11.68
2023-02-05T12:20:19.619Z,11.72
2023-02-05T12:21:19.190Z,11.69
2023-02-05T12:22:19.212Z,11.67
2023-02-05T12:23:19.194Z,11.60
2023-02-05T12:24:18.918Z,11.61
2023-02-05T12:25:20.092Z,11.63
2023-02-05T12:26:19.139Z,11.75
2023-02-05T12:27:19.767Z,11.76
2023-02-05T12:28:19.448Z,11.73
2023-02-05T12:29:19.210Z,11.79
2023-02-05T12:30:20.197Z,11.81
2023-02-05T12:31:19.149Z,11.77
2023-02-05T12:32:19.171Z,11.70
2023-02-05T12:33:19.784Z,11.88
2023-02-05T12:34:19.718Z,11.80
2023-02-05T12:35:20.171Z,11.76
2023-02-05T12:36:19.512Z,11.72
2023-02-05T12:37:19.304Z,11.75
2023-02-05T12:38:30.759Z,11.73
2023-02-05T12:39:19.159Z,11.71
2023-02-05T12:40:19.947Z,11.68
2023-02-05T12:41:19.597Z,11.60
2023-02-05T12:42:19.228Z,11.54
2023-02-05T12:43:18.978Z,11.54
2023-02-05T12:44:19.609Z,11.53
2023-02-05T12:45:19.168Z,11.53
2023-02-05T12:46:18.982Z,11.53
2023-02-05T12:47:19.671Z,11.59
2023-02-05T12:48:19.390Z,11.59
2023-02-05T12:49:19.386Z,11.62
2023-02-05T12:50:20.126Z,11.78
2023-02-05T12:51:18.989Z,11.72
2023-02-05T12:52:19.800Z,11.70
2023-02-05T12:53:19.828Z,11.70
2023-02-05T12:54:19.802Z,11.67
2023-02-05T12:55:20.988Z,11.58
2023-02-05T12:56:19.178Z,11.56